sensor_id;sensor_type;location;lat;lon;timestamp;temperature;humidity
7254;DHT22;4060;49.186;9.226;2023-12-07T00:02:05;8.70;80.20
7254;DHT22;4060;49.186;9.226;2023-12-07T00:04:35;8.60;80.80
7254;DHT22;4060;49.186;9.226;2023-12-07T00:07:06;8.60;80.10
7254;DHT22;4060;49.186;9.226;2023-12-07T00:09:35;8.60;80.10
7254;DHT22;4060;49.186;9.226;2023-12-07T00:12:05;8.60;80.10
7254;DHT22;4060;49.186;9.226;2023-12-07T00:14:34;8.60;80.90
7254;DHT22;4060;49.186;9.226;2023-12-07T00:17:04;8.60;80.20
7254;DHT22;4060;49.186;9.226;2023-12-07T00:19:33;8.60;80.20
7254;DHT22;4060;49.186;9.226;2023-12-07T00:22:02;8.60;80.20
7254;DHT22;4060;49.186;9.226;2023-12-07T00:24:36;8.60;80.30
7254;DHT22;4060;49.186;9.226;2023-12-07T00:27:05;8.60;80.20
7254;DHT22;4060;49.186;9.226;2023-12-07T00:29:37;8.60;80.20
7254;DHT22;4060;49.186;9.226;2023-12-07T00:32:06;8.50;80.20
7254;DHT22;4060;49.186;9.226;2023-12-07T00:34:36;8.50;80.20
7254;DHT22;4060;49.186;9.226;2023-12-07T00:37:05;8.50;80.20
7254;DHT22;4060;49.186;9.226;2023-12-07T00:39:37;8.50;80.20
7254;DHT22;4060;49.186;9.226;2023-12-07T00:42:06;8.50;80.30
7254;DHT22;4060;49.186;9.226;2023-12-07T00:44:41;8.50;80.20
7254;DHT22;4060;49.186;9.226;2023-12-07T00:47:10;8.50;80.30
7254;DHT22;4060;49.186;9.226;2023-12-07T00:49:40;8.50;80.30
7254;DHT22;4060;49.186;9.226;2023-12-07T00:52:09;8.50;80.30
7254;DHT22;4060;49.186;9.226;2023-12-07T00:54:41;8.50;80.30
7254;DHT22;4060;49.186;9.226;2023-12-07T00:57:10;8.50;80.30
7254;DHT22;4060;49.186;9.226;2023-12-07T00:59:39;8.50;80.40
7254;DHT22;4060;49.186;9.226;2023-12-07T01:02:09;8.40;80.30
7254;DHT22;4060;49.186;9.226;2023-12-07T01:04:38;8.40;80.40
7254;DHT22;4060;49.186;9.226;2023-12-07T01:07:08;8.40;80.30
7254;DHT22;4060;49.186;9.226;2023-12-07T01:09:37;8.40;80.40
7254;DHT22;4060;49.186;9.226;2023-12-07T01:12:08;8.40;80.40
7254;DHT22;4060;49.186;9.226;2023-12-07T01:14:39;8.40;80.40
7254;DHT22;4060;49.186;9.226;2023-12-07T01:17:08;8.40;80.30
7254;DHT22;4060;49.186;9.226;2023-12-07T01:19:37;8.40;80.40
7254;DHT22;4060;49.186;9.226;2023-12-07T01:22:08;8.40;80.50
7254;DHT22;4060;49.186;9.226;2023-12-07T01:24:37;8.40;80.50
7254;DHT22;4060;49.186;9.226;2023-12-07T01:27:08;8.40;80.50
7254;DHT22;4060;49.186;9.226;2023-12-07T01:29:38;8.30;80.40
7254;DHT22;4060;49.186;9.226;2023-12-07T01:32:07;8.40;80.50
7254;DHT22;4060;49.186;9.226;2023-12-07T01:34:38;8.30;80.40
7254;DHT22;4060;49.186;9.226;2023-12-07T01:37:08;8.30;80.40
7254;DHT22;4060;49.186;9.226;2023-12-07T01:39:38;8.30;80.50
7254;DHT22;4060;49.186;9.226;2023-12-07T01:42:09;8.30;80.50
7254;DHT22;4060;49.186;9.226;2023-12-07T01:44:39;8.30;80.50
7254;DHT22;4060;49.186;9.226;2023-12-07T01:47:08;8.30;80.50
7254;DHT22;4060;49.186;9.226;2023-12-07T01:49:40;8.30;80.50
7254;DHT22;4060;49.186;9.226;2023-12-07T01:52:11;8.30;80.50
7254;DHT22;4060;49.186;9.226;2023-12-07T01:54:41;8.30;80.50
7254;DHT22;4060;49.186;9.226;2023-12-07T01:57:13;8.30;80.50
7254;DHT22;4060;49.186;9.226;2023-12-07T01:59:42;8.30;80.50
7254;DHT22;4060;49.186;9.226;2023-12-07T02:02:12;8.30;80.50
7254;DHT22;4060;49.186;9.226;2023-12-07T02:04:42;8.30;80.60
7254;DHT22;4060;49.186;9.226;2023-12-07T02:07:11;8.20;80.40
7254;DHT22;4060;49.186;9.226;2023-12-07T02:09:41;8.30;80.50
7254;DHT22;4060;49.186;9.226;2023-12-07T02:12:13;8.20;80.40
7254;DHT22;4060;49.186;9.226;2023-12-07T02:14:43;8.20;80.40
7254;DHT22;4060;49.186;9.226;2023-12-07T02:17:16;8.20;80.40
7254;DHT22;4060;49.186;9.226;2023-12-07T02:19:57;8.20;80.50
7254;DHT22;4060;49.186;9.226;2023-12-07T02:22:33;8.20;80.60
7254;DHT22;4060;49.186;9.226;2023-12-07T02:25:09;8.20;80.50
7254;DHT22;4060;49.186;9.226;2023-12-07T02:27:42;8.20;80.50
7254;DHT22;4060;49.186;9.226;2023-12-07T02:30:13;8.20;80.50
7254;DHT22;4060;49.186;9.226;2023-12-07T02:32:44;8.10;80.40
7254;DHT22;4060;49.186;9.226;2023-12-07T02:35:14;8.10;80.40
7254;DHT22;4060;49.186;9.226;2023-12-07T02:37:46;8.10;80.40
7254;DHT22;4060;49.186;9.226;2023-12-07T02:40:19;8.10;80.50
7254;DHT22;4060;49.186;9.226;2023-12-07T02:42:52;8.10;80.50
7254;DHT22;4060;49.186;9.226;2023-12-07T02:45:21;8.10;80.40
7254;DHT22;4060;49.186;9.226;2023-12-07T02:47:50;8.10;80.40
7254;DHT22;4060;49.186;9.226;2023-12-07T02:50:20;8.00;80.30
7254;DHT22;4060;49.186;9.226;2023-12-07T02:52:51;8.00;80.30
7254;DHT22;4060;49.186;9.226;2023-12-07T02:55:23;8.00;80.40
7254;DHT22;4060;49.186;9.226;2023-12-07T02:57:55;8.00;80.30
7254;DHT22;4060;49.186;9.226;2023-12-07T03:00:24;8.00;80.30
7254;DHT22;4060;49.186;9.226;2023-12-07T03:02:53;8.00;80.30
7254;DHT22;4060;49.186;9.226;2023-12-07T03:05:23;8.00;80.30
7254;DHT22;4060;49.186;9.226;2023-12-07T03:07:52;8.00;80.30
7254;DHT22;4060;49.186;9.226;2023-12-07T03:10:21;8.00;80.30
7254;DHT22;4060;49.186;9.226;2023-12-07T03:12:53;8.00;80.30
7254;DHT22;4060;49.186;9.226;2023-12-07T03:15:22;7.90;80.10
7254;DHT22;4060;49.186;9.226;2023-12-07T03:17:53;7.90;80.10
7254;DHT22;4060;49.186;9.226;2023-12-07T03:20:23;7.90;80.10
7254;DHT22;4060;49.186;9.226;2023-12-07T03:22:53;7.90;80.10
7254;DHT22;4060;49.186;9.226;2023-12-07T03:25:22;7.90;80.10
7254;DHT22;4060;49.186;9.226;2023-12-07T03:27:54;7.90;80.10
7254;DHT22;4060;49.186;9.226;2023-12-07T03:30:23;7.80;80.00
7254;DHT22;4060;49.186;9.226;2023-12-07T03:32:52;7.80;80.00
7254;DHT22;4060;49.186;9.226;2023-12-07T03:35:21;7.80;80.00
7254;DHT22;4060;49.186;9.226;2023-12-07T03:37:51;7.80;80.00
7254;DHT22;4060;49.186;9.226;2023-12-07T03:40:26;7.80;79.90
7254;DHT22;4060;49.186;9.226;2023-12-07T03:42:58;7.80;80.00
7254;DHT22;4060;49.186;9.226;2023-12-07T03:45:27;7.80;80.00
7254;DHT22;4060;49.186;9.226;2023-12-07T03:47:56;7.80;80.00
7254;DHT22;4060;49.186;9.226;2023-12-07T03:50:26;7.80;79.90
7254;DHT22;4060;49.186;9.226;2023-12-07T03:52:56;7.70;79.80
7254;DHT22;4060;49.186;9.226;2023-12-07T03:55:25;7.70;79.70
7254;DHT22;4060;49.186;9.226;2023-12-07T03:57:57;7.70;79.80
7254;DHT22;4060;49.186;9.226;2023-12-07T04:00:26;7.70;79.80
7254;DHT22;4060;49.186;9.226;2023-12-07T04:02:56;7.70;79.70
7254;DHT22;4060;49.186;9.226;2023-12-07T04:05:25;7.70;79.80
7254;DHT22;4060;49.186;9.226;2023-12-07T04:07:54;7.70;79.80
7254;DHT22;4060;49.186;9.226;2023-12-07T04:10:23;7.70;79.70
7254;DHT22;4060;49.186;9.226;2023-12-07T04:12:53;7.60;79.60
7254;DHT22;4060;49.186;9.226;2023-12-07T04:15:24;7.60;79.60
7254;DHT22;4060;49.186;9.226;2023-12-07T04:17:53;7.60;79.60
7254;DHT22;4060;49.186;9.226;2023-12-07T04:20:23;7.60;79.60
7254;DHT22;4060;49.186;9.226;2023-12-07T04:22:52;7.60;79.60
7254;DHT22;4060;49.186;9.226;2023-12-07T04:25:22;7.60;79.60
7254;DHT22;4060;49.186;9.226;2023-12-07T04:27:51;7.60;79.60
7254;DHT22;4060;49.186;9.226;2023-12-07T04:30:20;7.50;79.40
7254;DHT22;4060;49.186;9.226;2023-12-07T04:32:52;7.60;79.60
7254;DHT22;4060;49.186;9.226;2023-12-07T04:35:21;7.50;79.40
7254;DHT22;4060;49.186;9.226;2023-12-07T04:37:51;7.50;79.40
7254;DHT22;4060;49.186;9.226;2023-12-07T04:40:21;7.50;79.50
7254;DHT22;4060;49.186;9.226;2023-12-07T04:42:51;7.50;79.40
7254;DHT22;4060;49.186;9.226;2023-12-07T04:45:20;7.50;79.40
7254;DHT22;4060;49.186;9.226;2023-12-07T04:47:51;7.50;79.50
7254;DHT22;4060;49.186;9.226;2023-12-07T04:50:21;7.40;79.30
7254;DHT22;4060;49.186;9.226;2023-12-07T04:52:51;7.40;79.30
7254;DHT22;4060;49.186;9.226;2023-12-07T04:55:21;7.40;80.10
7254;DHT22;4060;49.186;9.226;2023-12-07T04:57:51;7.40;79.40
7254;DHT22;4060;49.186;9.226;2023-12-07T05:00:20;7.40;79.30
7254;DHT22;4060;49.186;9.226;2023-12-07T05:02:52;7.40;79.40
7254;DHT22;4060;49.186;9.226;2023-12-07T05:05:21;7.40;79.30
7254;DHT22;4060;49.186;9.226;2023-12-07T05:07:51;7.30;79.30
7254;DHT22;4060;49.186;9.226;2023-12-07T05:10:21;7.30;79.30
7254;DHT22;4060;49.186;9.226;2023-12-07T05:12:50;7.30;79.30
7254;DHT22;4060;49.186;9.226;2023-12-07T05:15:19;7.30;79.30
7254;DHT22;4060;49.186;9.226;2023-12-07T05:17:49;7.30;79.30
7254;DHT22;4060;49.186;9.226;2023-12-07T05:20:20;7.30;79.30
7254;DHT22;4060;49.186;9.226;2023-12-07T05:22:51;7.30;79.30
7254;DHT22;4060;49.186;9.226;2023-12-07T05:25:20;7.30;79.30
7254;DHT22;4060;49.186;9.226;2023-12-07T05:27:49;7.20;79.20
7254;DHT22;4060;49.186;9.226;2023-12-07T05:30:19;7.20;79.30
7254;DHT22;4060;49.186;9.226;2023-12-07T05:32:48;7.20;79.30
7254;DHT22;4060;49.186;9.226;2023-12-07T05:35:20;7.20;79.40
7254;DHT22;4060;49.186;9.226;2023-12-07T05:37:50;7.20;79.40
7254;DHT22;4060;49.186;9.226;2023-12-07T05:40:20;7.20;79.40
7254;DHT22;4060;49.186;9.226;2023-12-07T05:42:50;7.20;79.50
7254;DHT22;4060;49.186;9.226;2023-12-07T05:45:20;7.20;79.50
7254;DHT22;4060;49.186;9.226;2023-12-07T05:47:49;7.20;79.50
7254;DHT22;4060;49.186;9.226;2023-12-07T05:50:22;7.10;79.40
7254;DHT22;4060;49.186;9.226;2023-12-07T05:52:51;7.10;79.40
7254;DHT22;4060;49.186;9.226;2023-12-07T05:55:20;7.10;79.40
7254;DHT22;4060;49.186;9.226;2023-12-07T05:57:51;7.10;79.50
7254;DHT22;4060;49.186;9.226;2023-12-07T06:00:20;7.10;79.40
7254;DHT22;4060;49.186;9.226;2023-12-07T06:02:50;7.10;79.50
7254;DHT22;4060;49.186;9.226;2023-12-07T06:05:22;7.10;79.50
7254;DHT22;4060;49.186;9.226;2023-12-07T06:07:52;7.10;79.60
7254;DHT22;4060;49.186;9.226;2023-12-07T06:10:22;7.10;79.60
7254;DHT22;4060;49.186;9.226;2023-12-07T06:12:52;7.00;79.50
7254;DHT22;4060;49.186;9.226;2023-12-07T06:15:22;7.10;79.60
7254;DHT22;4060;49.186;9.226;2023-12-07T06:17:52;7.00;79.40
7254;DHT22;4060;49.186;9.226;2023-12-07T06:20:23;7.00;79.50
7254;DHT22;4060;49.186;9.226;2023-12-07T06:22:53;7.00;79.50
7254;DHT22;4060;49.186;9.226;2023-12-07T06:25:22;7.00;79.50
7254;DHT22;4060;49.186;9.226;2023-12-07T06:27:51;7.00;79.40
7254;DHT22;4060;49.186;9.226;2023-12-07T06:30:21;7.00;79.40
7254;DHT22;4060;49.186;9.226;2023-12-07T06:32:52;7.00;79.50
7254;DHT22;4060;49.186;9.226;2023-12-07T06:35:23;7.00;79.50
7254;DHT22;4060;49.186;9.226;2023-12-07T06:37:53;7.00;79.60
7254;DHT22;4060;49.186;9.226;2023-12-07T06:40:22;7.00;79.70
7254;DHT22;4060;49.186;9.226;2023-12-07T06:42:51;7.00;79.60
7254;DHT22;4060;49.186;9.226;2023-12-07T06:45:21;6.90;79.50
7254;DHT22;4060;49.186;9.226;2023-12-07T06:47:50;7.00;79.60
7254;DHT22;4060;49.186;9.226;2023-12-07T06:50:22;7.00;79.60
7254;DHT22;4060;49.186;9.226;2023-12-07T06:52:52;6.90;79.60
7254;DHT22;4060;49.186;9.226;2023-12-07T06:55:21;6.90;79.60
7254;DHT22;4060;49.186;9.226;2023-12-07T06:57:51;6.90;79.60
7254;DHT22;4060;49.186;9.226;2023-12-07T07:00:20;6.90;79.60
7254;DHT22;4060;49.186;9.226;2023-12-07T07:02:51;6.90;79.60
7254;DHT22;4060;49.186;9.226;2023-12-07T07:05:23;6.90;79.70
7254;DHT22;4060;49.186;9.226;2023-12-07T07:07:52;6.90;79.70
7254;DHT22;4060;49.186;9.226;2023-12-07T07:10:22;6.90;79.70
7254;DHT22;4060;49.186;9.226;2023-12-07T07:12:51;6.90;79.70
7254;DHT22;4060;49.186;9.226;2023-12-07T07:15:21;6.90;79.80
7254;DHT22;4060;49.186;9.226;2023-12-07T07:17:52;6.90;79.70
7254;DHT22;4060;49.186;9.226;2023-12-07T07:20:23;6.90;79.70
7254;DHT22;4060;49.186;9.226;2023-12-07T07:22:53;6.90;79.70
7254;DHT22;4060;49.186;9.226;2023-12-07T07:25:24;6.90;79.70
7254;DHT22;4060;49.186;9.226;2023-12-07T07:27:53;6.90;79.80
7254;DHT22;4060;49.186;9.226;2023-12-07T07:30:22;6.90;79.80
7254;DHT22;4060;49.186;9.226;2023-12-07T07:32:52;6.90;79.80
7254;DHT22;4060;49.186;9.226;2023-12-07T07:35:23;6.90;79.80
7254;DHT22;4060;49.186;9.226;2023-12-07T07:37:54;6.80;79.80
7254;DHT22;4060;49.186;9.226;2023-12-07T07:40:23;6.80;79.80
7254;DHT22;4060;49.186;9.226;2023-12-07T07:42:55;6.90;79.90
7254;DHT22;4060;49.186;9.226;2023-12-07T07:45:25;6.80;79.80
7254;DHT22;4060;49.186;9.226;2023-12-07T07:47:54;6.80;79.80
7254;DHT22;4060;49.186;9.226;2023-12-07T07:50:32;6.80;79.80
7254;DHT22;4060;49.186;9.226;2023-12-07T07:53:03;6.80;79.80
7254;DHT22;4060;49.186;9.226;2023-12-07T07:55:33;6.80;79.80
7254;DHT22;4060;49.186;9.226;2023-12-07T07:58:03;6.80;79.90
7254;DHT22;4060;49.186;9.226;2023-12-07T08:00:32;6.80;79.90
7254;DHT22;4060;49.186;9.226;2023-12-07T08:03:02;6.80;79.90
7254;DHT22;4060;49.186;9.226;2023-12-07T08:05:33;6.80;80.00
7254;DHT22;4060;49.186;9.226;2023-12-07T08:08:03;6.80;80.00
7254;DHT22;4060;49.186;9.226;2023-12-07T08:10:32;6.80;80.00
7254;DHT22;4060;49.186;9.226;2023-12-07T08:13:02;6.80;80.00
7254;DHT22;4060;49.186;9.226;2023-12-07T08:15:32;6.80;80.00
7254;DHT22;4060;49.186;9.226;2023-12-07T08:18:01;6.80;80.10
7254;DHT22;4060;49.186;9.226;2023-12-07T08:20:32;6.80;80.10
7254;DHT22;4060;49.186;9.226;2023-12-07T08:23:02;6.80;80.10
7254;DHT22;4060;49.186;9.226;2023-12-07T08:25:31;6.70;80.00
7254;DHT22;4060;49.186;9.226;2023-12-07T08:28:01;6.70;80.00
7254;DHT22;4060;49.186;9.226;2023-12-07T08:30:30;6.70;80.00
7254;DHT22;4060;49.186;9.226;2023-12-07T08:32:59;6.80;80.10
7254;DHT22;4060;49.186;9.226;2023-12-07T08:35:29;6.70;80.10
7254;DHT22;4060;49.186;9.226;2023-12-07T08:38:01;6.70;80.10
7254;DHT22;4060;49.186;9.226;2023-12-07T08:40:31;6.70;80.10
7254;DHT22;4060;49.186;9.226;2023-12-07T08:43:02;6.70;80.30
7254;DHT22;4060;49.186;9.226;2023-12-07T08:45:33;6.70;80.20
7254;DHT22;4060;49.186;9.226;2023-12-07T08:48:05;6.70;80.20
7254;DHT22;4060;49.186;9.226;2023-12-07T08:50:34;6.70;80.20
7254;DHT22;4060;49.186;9.226;2023-12-07T08:53:06;6.70;80.20
7254;DHT22;4060;49.186;9.226;2023-12-07T08:55:35;6.70;80.30
7254;DHT22;4060;49.186;9.226;2023-12-07T08:58:05;6.70;80.30
7254;DHT22;4060;49.186;9.226;2023-12-07T09:00:34;6.70;80.30
7254;DHT22;4060;49.186;9.226;2023-12-07T09:03:04;6.70;80.30
7254;DHT22;4060;49.186;9.226;2023-12-07T09:05:33;6.70;80.30
7254;DHT22;4060;49.186;9.226;2023-12-07T09:08:02;6.70;80.30
7254;DHT22;4060;49.186;9.226;2023-12-07T09:10:34;6.80;80.50
7254;DHT22;4060;49.186;9.226;2023-12-07T09:13:03;6.70;80.40
7254;DHT22;4060;49.186;9.226;2023-12-07T09:15:33;6.70;80.40
7254;DHT22;4060;49.186;9.226;2023-12-07T09:18:04;6.70;80.50
7254;DHT22;4060;49.186;9.226;2023-12-07T09:20:35;6.80;80.50
7254;DHT22;4060;49.186;9.226;2023-12-07T09:23:05;6.70;80.40
7254;DHT22;4060;49.186;9.226;2023-12-07T09:25:36;6.70;80.50
7254;DHT22;4060;49.186;9.226;2023-12-07T09:28:05;6.70;80.60
7254;DHT22;4060;49.186;9.226;2023-12-07T09:30:35;6.70;80.60
7254;DHT22;4060;49.186;9.226;2023-12-07T09:33:05;6.70;80.60
7254;DHT22;4060;49.186;9.226;2023-12-07T09:35:34;6.80;80.70
7254;DHT22;4060;49.186;9.226;2023-12-07T09:38:03;6.80;80.80
7254;DHT22;4060;49.186;9.226;2023-12-07T09:40:38;6.80;80.80
7254;DHT22;4060;49.186;9.226;2023-12-07T09:43:07;6.80;80.80
7254;DHT22;4060;49.186;9.226;2023-12-07T09:45:37;6.80;80.80
7254;DHT22;4060;49.186;9.226;2023-12-07T09:48:08;6.80;80.90
7254;DHT22;4060;49.186;9.226;2023-12-07T09:50:38;6.80;80.80
7254;DHT22;4060;49.186;9.226;2023-12-07T09:53:08;6.80;80.80
7254;DHT22;4060;49.186;9.226;2023-12-07T09:55:40;6.80;80.90
7254;DHT22;4060;49.186;9.226;2023-12-07T09:58:09;6.80;81.10
7254;DHT22;4060;49.186;9.226;2023-12-07T10:00:39;6.80;81.20
7254;DHT22;4060;49.186;9.226;2023-12-07T10:03:21;6.80;81.50
7254;DHT22;4060;49.186;9.226;2023-12-07T10:06:00;6.80;81.50
7254;DHT22;4060;49.186;9.226;2023-12-07T10:08:30;6.80;81.60
7254;DHT22;4060;49.186;9.226;2023-12-07T10:11:09;6.80;81.60
7254;DHT22;4060;49.186;9.226;2023-12-07T10:13:41;6.90;81.80
7254;DHT22;4060;49.186;9.226;2023-12-07T10:16:11;6.90;81.80
7254;DHT22;4060;49.186;9.226;2023-12-07T10:18:42;6.90;82.00
7254;DHT22;4060;49.186;9.226;2023-12-07T10:21:11;6.90;81.90
7254;DHT22;4060;49.186;9.226;2023-12-07T10:23:41;6.90;82.70
7254;DHT22;4060;49.186;9.226;2023-12-07T10:26:16;6.90;82.00
7254;DHT22;4060;49.186;9.226;2023-12-07T10:28:49;6.90;82.00
7254;DHT22;4060;49.186;9.226;2023-12-07T10:31:21;6.90;82.10
7254;DHT22;4060;49.186;9.226;2023-12-07T10:33:50;7.00;82.20
7254;DHT22;4060;49.186;9.226;2023-12-07T10:36:20;7.00;82.20
7254;DHT22;4060;49.186;9.226;2023-12-07T10:38:51;7.00;82.30
7254;DHT22;4060;49.186;9.226;2023-12-07T10:41:23;7.00;82.40
7254;DHT22;4060;49.186;9.226;2023-12-07T10:43:53;7.00;82.40
7254;DHT22;4060;49.186;9.226;2023-12-07T10:46:23;7.00;82.40
7254;DHT22;4060;49.186;9.226;2023-12-07T10:49:01;7.00;82.30
7254;DHT22;4060;49.186;9.226;2023-12-07T10:51:37;7.00;82.40
7254;DHT22;4060;49.186;9.226;2023-12-07T10:54:08;7.10;82.50
7254;DHT22;4060;49.186;9.226;2023-12-07T10:56:45;7.10;82.50
7254;DHT22;4060;49.186;9.226;2023-12-07T10:59:16;7.10;82.60
7254;DHT22;4060;49.186;9.226;2023-12-07T11:01:46;7.10;82.50
7254;DHT22;4060;49.186;9.226;2023-12-07T11:04:17;7.10;82.50
7254;DHT22;4060;49.186;9.226;2023-12-07T11:06:49;7.10;82.50
7254;DHT22;4060;49.186;9.226;2023-12-07T11:09:23;7.10;82.60
7254;DHT22;4060;49.186;9.226;2023-12-07T11:12:01;7.20;82.60
7254;DHT22;4060;49.186;9.226;2023-12-07T11:14:32;7.10;82.60
7254;DHT22;4060;49.186;9.226;2023-12-07T11:17:03;7.20;82.70
7254;DHT22;4060;49.186;9.226;2023-12-07T11:19:47;7.20;82.70
7254;DHT22;4060;49.186;9.226;2023-12-07T11:22:17;7.20;82.70
7254;DHT22;4060;49.186;9.226;2023-12-07T11:24:57;7.20;82.60
7254;DHT22;4060;49.186;9.226;2023-12-07T11:27:32;7.20;82.70
7254;DHT22;4060;49.186;9.226;2023-12-07T11:30:02;7.20;82.70
7254;DHT22;4060;49.186;9.226;2023-12-07T11:32:34;7.20;82.70
7254;DHT22;4060;49.186;9.226;2023-12-07T11:35:04;7.30;82.70
7254;DHT22;4060;49.186;9.226;2023-12-07T11:40:41;7.30;82.90
7254;DHT22;4060;49.186;9.226;2023-12-07T11:43:41;7.30;82.70
7254;DHT22;4060;49.186;9.226;2023-12-07T11:46:16;7.30;82.80
7254;DHT22;4060;49.186;9.226;2023-12-07T11:48:48;7.30;82.70
7254;DHT22;4060;49.186;9.226;2023-12-07T11:51:18;7.40;82.80
7254;DHT22;4060;49.186;9.226;2023-12-07T11:53:47;7.40;82.80
7254;DHT22;4060;49.186;9.226;2023-12-07T11:56:18;7.40;82.90
7254;DHT22;4060;49.186;9.226;2023-12-07T11:58:51;7.40;82.80
7254;DHT22;4060;49.186;9.226;2023-12-07T12:01:25;7.40;82.80
7254;DHT22;4060;49.186;9.226;2023-12-07T12:03:58;7.50;82.90
7254;DHT22;4060;49.186;9.226;2023-12-07T12:06:28;7.40;82.70
7254;DHT22;4060;49.186;9.226;2023-12-07T12:08:59;7.50;82.80
7254;DHT22;4060;49.186;9.226;2023-12-07T12:11:29;7.50;82.80
7254;DHT22;4060;49.186;9.226;2023-12-07T12:14:00;7.50;82.70
7254;DHT22;4060;49.186;9.226;2023-12-07T12:16:30;7.60;82.80
7254;DHT22;4060;49.186;9.226;2023-12-07T12:19:00;7.60;82.70
7254;DHT22;4060;49.186;9.226;2023-12-07T12:21:34;7.60;82.70
7254;DHT22;4060;49.186;9.226;2023-12-07T12:24:06;7.60;82.70
7254;DHT22;4060;49.186;9.226;2023-12-07T12:26:37;7.60;82.60
7254;DHT22;4060;49.186;9.226;2023-12-07T12:29:09;7.60;82.60
7254;DHT22;4060;49.186;9.226;2023-12-07T12:31:39;7.70;82.60
7254;DHT22;4060;49.186;9.226;2023-12-07T12:34:11;7.70;82.50
7254;DHT22;4060;49.186;9.226;2023-12-07T12:36:41;7.70;82.60
7254;DHT22;4060;49.186;9.226;2023-12-07T12:39:11;7.70;82.50
7254;DHT22;4060;49.186;9.226;2023-12-07T12:41:40;7.70;82.40
7254;DHT22;4060;49.186;9.226;2023-12-07T12:44:12;7.80;82.50
7254;DHT22;4060;49.186;9.226;2023-12-07T12:46:42;7.80;82.40
7254;DHT22;4060;49.186;9.226;2023-12-07T12:49:11;7.80;82.30
7254;DHT22;4060;49.186;9.226;2023-12-07T12:51:41;7.80;82.20
7254;DHT22;4060;49.186;9.226;2023-12-07T12:54:10;7.80;82.10
7254;DHT22;4060;49.186;9.226;2023-12-07T12:56:41;7.80;82.00
7254;DHT22;4060;49.186;9.226;2023-12-07T12:59:13;7.90;82.10
7254;DHT22;4060;49.186;9.226;2023-12-07T13:01:42;7.90;81.90
7254;DHT22;4060;49.186;9.226;2023-12-07T13:04:13;7.90;81.90
7254;DHT22;4060;49.186;9.226;2023-12-07T13:06:42;7.90;81.80
7254;DHT22;4060;49.186;9.226;2023-12-07T13:09:12;7.90;81.80
7254;DHT22;4060;49.186;9.226;2023-12-07T13:11:41;7.90;81.80
7254;DHT22;4060;49.186;9.226;2023-12-07T13:14:12;8.00;81.70
7254;DHT22;4060;49.186;9.226;2023-12-07T13:16:42;8.00;81.60
7254;DHT22;4060;49.186;9.226;2023-12-07T13:19:17;8.00;81.50
7254;DHT22;4060;49.186;9.226;2023-12-07T13:21:48;8.00;81.50
7254;DHT22;4060;49.186;9.226;2023-12-07T13:24:17;8.00;81.30
7254;DHT22;4060;49.186;9.226;2023-12-07T13:26:47;8.00;81.30
7254;DHT22;4060;49.186;9.226;2023-12-07T13:29:19;8.00;81.30
7254;DHT22;4060;49.186;9.226;2023-12-07T13:31:48;8.00;81.30
7254;DHT22;4060;49.186;9.226;2023-12-07T13:34:18;8.00;81.20
7254;DHT22;4060;49.186;9.226;2023-12-07T13:36:48;8.10;81.20
7254;DHT22;4060;49.186;9.226;2023-12-07T13:39:17;8.10;81.10
7254;DHT22;4060;49.186;9.226;2023-12-07T13:41:47;8.10;81.00
7254;DHT22;4060;49.186;9.226;2023-12-07T13:44:20;8.10;80.90
7254;DHT22;4060;49.186;9.226;2023-12-07T13:46:53;8.10;80.90
7254;DHT22;4060;49.186;9.226;2023-12-07T13:49:23;8.10;80.80
7254;DHT22;4060;49.186;9.226;2023-12-07T13:51:53;8.10;80.80
7254;DHT22;4060;49.186;9.226;2023-12-07T13:54:23;8.10;81.40
7254;DHT22;4060;49.186;9.226;2023-12-07T13:56:53;8.20;80.70
7254;DHT22;4060;49.186;9.226;2023-12-07T13:59:25;8.10;80.50
7254;DHT22;4060;49.186;9.226;2023-12-07T14:01:54;8.10;80.50
7254;DHT22;4060;49.186;9.226;2023-12-07T14:04:24;8.10;80.40
7254;DHT22;4060;49.186;9.226;2023-12-07T14:06:53;8.20;80.50
7254;DHT22;4060;49.186;9.226;2023-12-07T14:09:23;8.20;80.40
7254;DHT22;4060;49.186;9.226;2023-12-07T14:11:53;8.20;80.30
7254;DHT22;4060;49.186;9.226;2023-12-07T14:14:24;8.20;80.30
7254;DHT22;4060;49.186;9.226;2023-12-07T14:16:54;8.20;80.20
7254;DHT22;4060;49.186;9.226;2023-12-07T14:19:24;8.20;80.20
7254;DHT22;4060;49.186;9.226;2023-12-07T14:21:54;8.20;80.20
7254;DHT22;4060;49.186;9.226;2023-12-07T14:24:25;8.20;80.20
7254;DHT22;4060;49.186;9.226;2023-12-07T14:26:54;8.20;80.10
7254;DHT22;4060;49.186;9.226;2023-12-07T14:29:26;8.20;80.00
7254;DHT22;4060;49.186;9.226;2023-12-07T14:31:56;8.20;80.00
7254;DHT22;4060;49.186;9.226;2023-12-07T14:34:26;8.20;80.00
7254;DHT22;4060;49.186;9.226;2023-12-07T14:36:56;8.20;79.90
7254;DHT22;4060;49.186;9.226;2023-12-07T14:39:26;8.20;79.80
7254;DHT22;4060;49.186;9.226;2023-12-07T14:41:56;8.20;79.70
7254;DHT22;4060;49.186;9.226;2023-12-07T14:44:27;8.20;79.70
7254;DHT22;4060;49.186;9.226;2023-12-07T14:46:57;8.20;79.70
7254;DHT22;4060;49.186;9.226;2023-12-07T14:49:27;8.20;79.70
7254;DHT22;4060;49.186;9.226;2023-12-07T14:51:57;8.20;79.60
7254;DHT22;4060;49.186;9.226;2023-12-07T14:54:27;8.30;79.60
7254;DHT22;4060;49.186;9.226;2023-12-07T14:56:58;8.20;79.40
7254;DHT22;4060;49.186;9.226;2023-12-07T14:59:30;8.20;79.40
7254;DHT22;4060;49.186;9.226;2023-12-07T15:01:59;8.20;79.30
7254;DHT22;4060;49.186;9.226;2023-12-07T15:04:30;8.30;79.40
7254;DHT22;4060;49.186;9.226;2023-12-07T15:06:59;8.20;79.20
7254;DHT22;4060;49.186;9.226;2023-12-07T15:09:30;8.20;79.10
7254;DHT22;4060;49.186;9.226;2023-12-07T15:12:02;8.20;78.90
7254;DHT22;4060;49.186;9.226;2023-12-07T15:14:34;8.20;78.90
7254;DHT22;4060;49.186;9.226;2023-12-07T15:17:03;8.20;78.80
7254;DHT22;4060;49.186;9.226;2023-12-07T15:19:33;8.20;78.70
7254;DHT22;4060;49.186;9.226;2023-12-07T15:22:03;8.20;78.60
7254;DHT22;4060;49.186;9.226;2023-12-07T15:24:33;8.20;78.50
7254;DHT22;4060;49.186;9.226;2023-12-07T15:27:03;8.20;78.40
7254;DHT22;4060;49.186;9.226;2023-12-07T15:29:35;8.20;78.20
7254;DHT22;4060;49.186;9.226;2023-12-07T15:32:05;8.20;78.20
7254;DHT22;4060;49.186;9.226;2023-12-07T15:34:35;8.20;78.10
7254;DHT22;4060;49.186;9.226;2023-12-07T15:37:04;8.20;78.10
7254;DHT22;4060;49.186;9.226;2023-12-07T15:39:34;8.20;77.90
7254;DHT22;4060;49.186;9.226;2023-12-07T15:42:04;8.20;77.90
7254;DHT22;4060;49.186;9.226;2023-12-07T15:44:35;8.20;77.90
7254;DHT22;4060;49.186;9.226;2023-12-07T15:47:04;8.20;77.80
7254;DHT22;4060;49.186;9.226;2023-12-07T15:49:34;8.20;77.70
7254;DHT22;4060;49.186;9.226;2023-12-07T15:52:04;8.10;77.50
7254;DHT22;4060;49.186;9.226;2023-12-07T15:54:34;8.10;77.50
7254;DHT22;4060;49.186;9.226;2023-12-07T15:57:04;8.10;77.50
7254;DHT22;4060;49.186;9.226;2023-12-07T15:59:35;8.10;77.40
7254;DHT22;4060;49.186;9.226;2023-12-07T16:02:05;8.10;77.40
7254;DHT22;4060;49.186;9.226;2023-12-07T16:04:35;8.10;77.40
7254;DHT22;4060;49.186;9.226;2023-12-07T16:07:05;8.10;77.40
7254;DHT22;4060;49.186;9.226;2023-12-07T16:09:39;8.10;77.40
7254;DHT22;4060;49.186;9.226;2023-12-07T16:12:10;8.10;77.40
7254;DHT22;4060;49.186;9.226;2023-12-07T16:14:41;8.10;77.40
7254;DHT22;4060;49.186;9.226;2023-12-07T16:17:11;8.10;77.40
7254;DHT22;4060;49.186;9.226;2023-12-07T16:19:41;8.10;77.40
7254;DHT22;4060;49.186;9.226;2023-12-07T16:22:11;8.10;77.40
7254;DHT22;4060;49.186;9.226;2023-12-07T16:24:42;8.10;77.40
7254;DHT22;4060;49.186;9.226;2023-12-07T16:27:11;8.00;77.20
7254;DHT22;4060;49.186;9.226;2023-12-07T16:29:42;8.00;77.20
7254;DHT22;4060;49.186;9.226;2023-12-07T16:32:12;8.00;77.20
7254;DHT22;4060;49.186;9.226;2023-12-07T16:34:42;8.00;77.20
7254;DHT22;4060;49.186;9.226;2023-12-07T16:37:12;8.00;77.20
7254;DHT22;4060;49.186;9.226;2023-12-07T16:39:42;8.00;77.10
7254;DHT22;4060;49.186;9.226;2023-12-07T16:42:11;8.00;77.10